Time;durP1;ratioP1;P1;durP2;ratioP2;P2;SDS_P1;SDS_P2;PMS_P1;PMS_P2;Temp;Humidity;BMP_temperature;BMP_pressure;BME280_temperature;BME280_humidity;BME280_pressure;Samples;Min_cycle;Max_cycle;Signal;HPM_P1;HPM_P2
2023/08/13 00:00:52;;;;;;;4.28;2.38;;;;;;;18.71;100.00;98719.59;4174507;28;20049;-74
2023/08/13 00:02:53;;;;;;;10.00;3.08;;;;;;;18.70;100.00;98714.41;4173643;28;20409;-74
2023/08/13 00:04:53;;;;;;;3.78;2.30;;;;;;;18.70;100.00;98731.22;4174607;28;20373;-74
2023/08/13 00:06:53;;;;;;;3.50;2.45;;;;;;;18.71;100.00;98725.19;4174264;28;20053;-74
2023/08/13 00:08:54;;;;;;;3.20;2.40;;;;;;;18.72;100.00;98723.97;4174119;28;20052;-74
2023/08/13 00:10:54;;;;;;;2.33;2.08;;;;;;;18.71;100.00;98721.59;4173948;28;20049;-74
2023/08/13 00:12:54;;;;;;;5.95;2.58;;;;;;;18.68;100.00;98722.44;4173764;28;20049;-74
2023/08/13 00:14:55;;;;;;;3.60;2.50;;;;;;;18.65;100.00;98717.66;4174278;28;20445;-74
2023/08/13 00:16:55;;;;;;;3.13;2.50;;;;;;;18.66;100.00;98724.88;4173716;28;20041;-74
2023/08/13 00:18:55;;;;;;;3.45;2.40;;;;;;;18.64;100.00;98716.09;4174300;28;20103;-74
2023/08/13 00:20:56;;;;;;;2.88;2.58;;;;;;;18.65;100.00;98726.91;4172802;28;20504;-74
2023/08/13 00:22:56;;;;;;;5.03;2.60;;;;;;;18.59;100.00;98713.75;4173375;28;20055;-74
2023/08/13 00:24:57;;;;;;;3.30;2.63;;;;;;;18.63;100.00;98723.72;4173527;28;20060;-74
2023/08/13 00:26:57;;;;;;;4.05;2.50;;;;;;;18.62;100.00;98724.13;4173816;28;20045;-74
2023/08/13 00:28:57;;;;;;;4.43;2.55;;;;;;;18.62;100.00;98721.31;4173532;28;20055;-74
2023/08/13 00:30:58;;;;;;;3.65;2.55;;;;;;;18.62;100.00;98712.91;4174332;28;20071;-74
2023/08/13 00:32:58;;;;;;;3.70;2.28;;;;;;;18.62;100.00;98722.13;4174388;28;20180;-74
2023/08/13 00:34:58;;;;;;;3.50;2.30;;;;;;;18.61;100.00;98714.13;4173658;28;20064;-74
2023/08/13 00:36:59;;;;;;;3.80;2.05;;;;;;;18.56;100.00;98715.41;4174065;28;20409;-74
2023/08/13 00:38:59;;;;;;;2.53;2.30;;;;;;;18.51;100.00;98722.28;4174486;28;20103;-74
2023/08/13 00:40:59;;;;;;;3.35;2.33;;;;;;;18.47;100.00;98720.78;4173664;28;20111;-74
2023/08/13 00:43:00;;;;;;;2.75;2.20;;;;;;;18.42;100.00;98727.66;4174237;28;20109;-74
2023/08/13 00:45:00;;;;;;;2.95;2.17;;;;;;;18.34;100.00;98726.16;4174905;28;20045;-74
2023/08/13 00:47:01;;;;;;;5.20;2.03;;;;;;;18.36;100.00;98722.94;4174095;28;20060;-74
2023/08/13 00:49:01;;;;;;;3.55;2.60;;;;;;;18.31;100.00;98724.22;4174045;28;20349;-74
2023/08/13 00:51:03;;;;;;;2.60;2.20;;;;;;;18.31;100.00;98737.44;4173317;28;20492;-74
2023/08/13 00:53:05;;;;;;;2.92;1.98;;;;;;;18.29;100.00;98742.66;4173226;28;20033;-74
2023/08/13 00:55:06;;;;;;;3.45;2.42;;;;;;;18.30;100.00;98739.44;4173947;28;20051;-74
2023/08/13 00:57:08;;;;;;;3.53;2.50;;;;;;;18.28;100.00;98736.25;4172016;28;20052;-74
2023/08/13 00:59:08;;;;;;;2.92;2.30;;;;;;;18.28;100.00;98733.47;4172286;28;20114;-74
2023/08/13 01:01:10;;;;;;;3.25;2.65;;;;;;;18.29;100.00;98737.88;4173958;28;20053;-74
2023/08/13 01:03:10;;;;;;;3.57;2.33;;;;;;;18.28;100.00;98746.66;4174004;28;20550;-74
2023/08/13 01:05:11;;;;;;;2.95;2.65;;;;;;;18.21;100.00;98736.41;4170814;28;20036;-74
2023/08/13 01:07:16;;;;;;;3.92;2.67;;;;;;;18.21;100.00;98734.38;4173844;28;20450;-74
2023/08/13 01:09:37;;;;;;;3.35;2.38;;;;;;;18.20;100.00;98732.81;4173484;28;20045;-74
2023/08/13 01:11:49;;;;;;;4.80;2.83;;;;;;;18.18;100.00;98738.00;4173430;28;20045;-74
2023/08/13 01:14:07;;;;;;;6.25;2.85;;;;;;;18.15;100.00;98730.47;4172670;28;20405;-74
2023/08/13 01:16:09;;;;;;;3.88;2.35;;;;;;;18.11;100.00;98740.13;4173426;28;20048;-74
2023/08/13 01:18:10;;;;;;;3.80;2.70;;;;;;;18.12;100.00;98738.91;4173650;28;20438;-74
2023/08/13 01:20:12;;;;;;;2.75;2.45;;;;;;;18.04;100.00;98738.25;4172992;28;20164;-74
2023/08/13 01:22:12;;;;;;;3.80;2.42;;;;;;;18.01;100.00;98739.06;4172722;28;20122;-74
2023/08/13 01:24:12;;;;;;;2.78;2.45;;;;;;;17.94;100.00;98741.97;4172361;28;20111;-74
2023/08/13 01:26:19;;;;;;;3.17;2.47;;;;;;;17.90;100.00;98744.03;4174473;28;20388;-74
2023/08/13 01:29:06;;;;;;;4.03;2.60;;;;;;;17.83;100.00;98730.91;4173469;28;20052;-74
2023/08/13 01:31:24;;;;;;;2.63;2.42;;;;;;;17.74;100.00;98733.44;4166838;28;20057;-74
2023/08/13 01:33:33;;;;;;;6.07;2.53;;;;;;;17.66;100.00;98726.31;4171492;28;20036;-74
2023/08/13 01:35:34;;;;;;;2.65;2.15;;;;;;;17.62;100.00;98736.75;4171296;28;20377;-74
2023/08/13 01:37:35;;;;;;;3.53;2.60;;;;;;;17.53;100.00;98728.88;4172699;28;20086;-73
2023/08/13 01:39:36;;;;;;;3.63;2.10;;;;;;;17.50;100.00;98737.31;4173479;28;20037;-74
2023/08/13 01:41:53;;;;;;;3.22;2.20;;;;;;;17.45;100.00;98744.16;4188738;28;20161;-74
2023/08/13 01:43:53;;;;;;;2.83;2.10;;;;;;;17.39;100.00;98734.66;4172278;28;20777;-74
2023/08/13 01:45:54;;;;;;;2.17;1.98;;;;;;;17.33;100.00;98736.31;4172938;28;20124;-74
2023/08/13 01:47:54;;;;;;;3.05;2.30;;;;;;;17.32;100.00;98743.91;4172415;28;20139;-73
2023/08/13 01:49:54;;;;;;;4.15;2.30;;;;;;;17.27;100.00;98735.97;4172159;28;20048;-74
2023/08/13 01:51:55;;;;;;;4.88;2.67;;;;;;;17.29;100.00;98724.38;4172497;28;20048;-74
2023/08/13 01:53:55;;;;;;;3.38;2.50;;;;;;;17.31;100.00;98733.16;4171886;28;20264;-74
2023/08/13 01:55:55;;;;;;;3.50;2.42;;;;;;;17.32;100.00;98738.31;4172584;28;20512;-74
2023/08/13 01:57:56;;;;;;;3.35;2.70;;;;;;;17.34;100.00;98729.50;4172895;28;20162;-74
2023/08/13 01:59:56;;;;;;;3.30;2.33;;;;;;;17.32;100.00;98731.94;4173450;28;20055;-74
2023/08/13 02:01:56;;;;;;;3.15;2.40;;;;;;;17.33;100.00;98731.53;4172224;28;20396;-74
2023/08/13 02:03:56;;;;;;;3.47;2.65;;;;;;;17.30;100.00;98725.97;4171316;28;20045;-74
2023/08/13 02:05:57;;;;;;;4.03;2.72;;;;;;;17.28;100.00;98726.38;4172852;28;20056;-74
2023/08/13 02:07:57;;;;;;;4.13;2.90;;;;;;;17.21;100.00;98732.06;4172673;28;20397;-74
2023/08/13 02:09:57;;;;;;;3.60;2.70;;;;;;;17.19;100.00;98733.69;4172928;28;20151;-73
2023/08/13 02:11:58;;;;;;;4.07;2.60;;;;;;;17.17;100.00;98738.91;4173848;28;20049;-74
2023/08/13 02:13:58;;;;;;;3.13;2.70;;;;;;;17.13;100.00;98730.56;4172208;28;20044;-74
2023/08/13 02:16:03;;;;;;;5.13;2.88;;;;;;;17.13;100.00;98736.94;4173178;28;20045;-74
2023/08/13 02:18:03;;;;;;;4.30;3.00;;;;;;;17.13;100.00;98739.75;4171728;28;20048;-74
2023/08/13 02:20:05;;;;;;;4.25;2.63;;;;;;;17.17;100.00;98750.09;4172381;28;20423;-74
2023/08/13 02:22:06;;;;;;;2.67;2.35;;;;;;;17.18;100.00;98740.47;4172116;28;20081;-74
2023/08/13 02:24:07;;;;;;;6.75;3.65;;;;;;;17.16;100.00;98743.69;4172404;28;20028;-74
2023/08/13 02:26:07;;;;;;;4.25;2.90;;;;;;;17.16;100.00;98745.69;4173254;28;20037;-74
2023/08/13 02:28:07;;;;;;;3.78;2.90;;;;;;;17.17;100.00;98744.50;4172159;28;20021;-74
2023/08/13 02:30:09;;;;;;;3.35;3.00;;;;;;;17.17;100.00;98744.50;4172247;28;20400;-74
2023/08/13 02:32:10;;;;;;;3.80;3.10;;;;;;;17.16;100.00;98740.91;4172263;28;20378;-74
2023/08/13 02:34:10;;;;;;;4.20;3.10;;;;;;;17.17;100.00;98736.09;4171724;28;20385;-74
2023/08/13 02:36:11;;;;;;;4.22;3.10;;;;;;;17.17;100.00;98736.91;4171777;28;20040;-74
2023/08/13 02:38:11;;;;;;;6.88;3.78;;;;;;;17.17;100.00;98733.31;4172566;28;20074;-74
2023/08/13 02:40:11;;;;;;;5.35;3.30;;;;;;;17.19;100.00;98733.69;4173789;28;20505;-74
2023/08/13 02:42:12;;;;;;;6.88;4.68;;;;;;;17.19;100.00;98725.28;4176746;28;20029;-74
2023/08/13 02:44:12;;;;;;;10.10;3.78;;;;;;;17.19;100.00;98728.09;4174747;28;20025;-74
2023/08/13 02:46:12;;;;;;;5.65;3.72;;;;;;;17.15;100.00;98730.94;4175653;28;20032;-74
2023/08/13 02:48:13;;;;;;;6.30;3.83;;;;;;;17.10;100.00;98725.78;4176714;28;20341;-74
2023/08/13 02:50:13;;;;;;;6.68;3.53;;;;;;;17.06;100.00;98719.44;4175058;28;20468;-74
2023/08/13 02:52:14;;;;;;;4.47;3.30;;;;;;;17.07;100.00;98729.44;4175737;28;20308;-74
2023/08/13 02:54:14;;;;;;;5.15;2.83;;;;;;;17.04;100.00;98730.22;4174517;28;20064;-74
2023/08/13 02:56:15;;;;;;;3.53;3.10;;;;;;;17.02;100.00;98736.25;4175284;28;20036;-74
2023/08/13 02:58:15;;;;;;;3.42;3.10;;;;;;;17.02;100.00;98733.44;4177141;28;20033;-74
2023/08/13 03:00:16;;;;;;;5.07;3.10;;;;;;;17.03;100.00;98737.03;4174716;28;20044;-74
2023/08/13 03:02:16;;;;;;;5.07;3.22;;;;;;;17.01;100.00;98742.25;4173395;28;20039;-74
2023/08/13 03:04:17;;;;;;;3.78;3.20;;;;;;;17.01;100.00;98745.06;4174580;28;20507;-74
2023/08/13 03:06:19;;;;;;;3.78;2.70;;;;;;;16.99;100.00;98741.88;4175412;28;20047;-74
2023/08/13 03:08:20;;;;;;;3.63;2.72;;;;;;;17.02;100.00;98741.03;4175742;28;20060;-74
2023/08/13 03:10:20;;;;;;;4.82;2.95;;;;;;;17.00;100.00;98732.28;4174163;28;20064;-74
2023/08/13 03:12:21;;;;;;;7.25;3.90;;;;;;;16.96;100.00;98740.69;4175108;28;20060;-74
2023/08/13 03:14:21;;;;;;;5.25;3.25;;;;;;;16.89;100.00;98735.19;4174792;28;20052;-74
2023/08/13 03:16:21;;;;;;;3.90;3.10;;;;;;;16.84;100.00;98733.63;4175854;28;20495;-74
2023/08/13 03:18:22;;;;;;;5.07;3.08;;;;;;;16.78;100.00;98732.47;4175201;28;20554;-74
2023/08/13 03:20:22;;;;;;;3.78;3.17;;;;;;;16.78;100.00;98737.28;4175413;28;20068;-74
2023/08/13 03:22:22;;;;;;;6.28;3.45;;;;;;;16.78;100.00;98738.06;4174919;28;20045;-74
2023/08/13 03:24:23;;;;;;;4.63;3.33;;;;;;;16.77;100.00;98738.50;4174418;28;20045;-74
2023/08/13 03:26:23;;;;;;;5.55;3.67;;;;;;;16.70;100.00;98738.56;4176634;28;20241;-74
2023/08/13 03:28:24;;;;;;;3.88;3.20;;;;;;;16.62;100.00;98731.41;4175054;28;20439;-74
2023/08/13 03:30:24;;;;;;;3.60;3.13;;;;;;;16.55;100.00;98735.09;4174698;28;20526;-74
2023/08/13 03:32:25;;;;;;;3.80;3.20;;;;;;;16.54;100.00;98739.84;4174556;28;20487;-74
2023/08/13 03:34:25;;;;;;;4.18;2.97;;;;;;;16.53;100.00;98746.63;4174433;28;20152;-74
2023/08/13 03:36:25;;;;;;;4.43;3.40;;;;;;;16.53;100.00;98731.88;4174840;28;20215;-74
2023/08/13 03:38:25;;;;;;;5.60;3.40;;;;;;;16.52;100.00;98733.88;4176298;28;20036;-74
2023/08/13 03:40:26;;;;;;;5.85;3.30;;;;;;;16.48;100.00;98738.72;4175291;28;21092;-74
2023/08/13 03:42:26;;;;;;;4.90;3.30;;;;;;;16.42;100.00;98734.78;4174444;28;20076;-73
2023/08/13 03:44:26;;;;;;;4.32;3.20;;;;;;;16.42;100.00;98740.34;4173623;28;20056;-74
2023/08/13 03:46:27;;;;;;;3.92;3.20;;;;;;;16.41;100.00;98726.81;4175271;28;20444;-74
2023/08/13 03:48:27;;;;;;;4.57;3.13;;;;;;;16.42;100.00;98726.41;4174483;28;20049;-73
2023/08/13 03:50:27;;;;;;;8.10;3.65;;;;;;;16.43;100.00;98727.19;4174121;28;20437;-73
2023/08/13 03:52:28;;;;;;;4.65;3.20;;;;;;;16.46;100.00;98729.16;4174920;28;20640;-73
2023/08/13 03:54:29;;;;;;;3.85;3.15;;;;;;;16.40;100.00;98730.81;4175772;28;20070;-73
2023/08/13 03:56:29;;;;;;;3.65;3.08;;;;;;;16.33;100.00;98728.06;4174883;28;20248;-73
2023/08/13 03:58:31;;;;;;;4.63;3.22;;;;;;;16.31;100.00;98738.88;4174913;28;20556;-73
2023/08/13 04:00:31;;;;;;;6.20;3.15;;;;;;;16.33;100.00;98747.63;4174766;28;20040;-73
2023/08/13 04:02:33;;;;;;;4.97;3.33;;;;;;;16.30;100.00;98729.66;4174284;28;20090;-73
2023/08/13 04:04:33;;;;;;;4.63;3.20;;;;;;;16.24;100.00;98737.69;4175264;28;20128;-74
2023/08/13 04:06:33;;;;;;;3.85;3.13;;;;;;;16.23;100.00;98750.06;4175864;28;20045;-73
2023/08/13 04:08:35;;;;;;;4.60;3.30;;;;;;;16.20;100.00;98739.72;4174438;28;20131;-73
2023/08/13 04:10:35;;;;;;;4.70;3.20;;;;;;;16.15;100.00;98748.53;4175210;28;20044;-74
2023/08/13 04:12:36;;;;;;;4.85;3.53;;;;;;;16.13;100.00;98756.50;4173091;28;20263;-73
2023/08/13 04:14:36;;;;;;;5.07;3.10;;;;;;;16.14;100.00;98746.94;4173857;28;20045;-73
2023/08/13 04:16:36;;;;;;;4.18;3.35;;;;;;;16.18;100.00;98769.25;4174859;28;20382;-73
2023/08/13 04:18:36;;;;;;;3.28;2.88;;;;;;;16.20;100.00;98764.84;4174683;28;20056;-73
2023/08/13 04:20:41;;;;;;;4.97;2.80;;;;;;;16.21;100.00;98755.25;4174244;28;20156;-73
2023/08/13 04:22:41;;;;;;;5.85;3.03;;;;;;;16.23;100.00;98755.66;4174446;28;20409;-73
2023/08/13 04:24:41;;;;;;;5.78;3.30;;;;;;;16.21;100.00;98755.25;4175010;28;20060;-73
2023/08/13 04:26:42;;;;;;;5.72;3.33;;;;;;;16.23;100.00;98760.44;4175292;28;20131;-73
2023/08/13 04:28:42;;;;;;;5.95;3.47;;;;;;;16.20;100.00;98761.25;4174120;28;20041;-73
2023/08/13 04:30:42;;;;;;;10.38;4.03;;;;;;;16.18;100.00;98764.47;4174252;28;20052;-73
2023/08/13 04:32:52;;;;;;;5.90;3.88;;;;;;;16.15;100.00;98756.13;4173360;28;20052;-73
2023/08/13 04:34:53;;;;;;;5.63;3.92;;;;;;;16.13;100.00;98756.50;4172797;28;20507;-73
2023/08/13 04:36:53;;;;;;;4.50;3.80;;;;;;;16.17;100.00;98750.91;4173139;28;20049;-73
2023/08/13 04:38:53;;;;;;;4.78;3.85;;;;;;;16.20;100.00;98758.47;4174544;28;20045;-73
2023/08/13 04:40:53;;;;;;;4.47;3.70;;;;;;;16.23;100.00;98760.44;4174947;28;20044;-73
2023/08/13 04:42:54;;;;;;;5.57;4.07;;;;;;;16.27;100.00;98756.41;4173499;28;20114;-73
2023/08/13 04:44:54;;;;;;;3.67;3.38;;;;;;;16.25;100.00;98747.66;4174522;28;20126;-73
2023/08/13 04:46:55;;;;;;;4.75;3.45;;;;;;;16.29;100.00;98751.22;4173169;28;20053;-74
2023/08/13 04:48:55;;;;;;;4.00;3.40;;;;;;;16.32;100.00;98751.63;4173984;28;20056;-73
2023/08/13 04:50:56;;;;;;;4.75;3.35;;;;;;;16.30;100.00;98752.00;4173377;28;20443;-73
2023/08/13 04:52:56;;;;;;;4.43;3.70;;;;;;;16.28;100.00;98746.03;4172485;28;20750;-73
2023/08/13 04:54:57;;;;;;;4.57;4.05;;;;;;;16.26;100.00;98748.44;4173799;28;20567;-73
2023/08/13 04:56:57;;;;;;;5.45;3.25;;;;;;;16.25;100.00;98750.44;4173212;28;20340;-73
2023/08/13 04:58:57;;;;;;;8.52;3.63;;;;;;;16.28;100.00;98751.63;4174448;28;20076;-73
2023/08/13 05:00:58;;;;;;;6.13;3.58;;;;;;;16.30;100.00;98746.41;4174527;28;20637;-73
2023/08/13 05:02:58;;;;;;;6.60;3.95;;;;;;;16.33;100.00;98747.63;4173469;28;20397;-73
2023/08/13 05:04:58;;;;;;;6.72;4.00;;;;;;;16.39;100.00;98743.19;4173394;28;20387;-73
2023/08/13 05:06:58;;;;;;;5.38;3.50;;;;;;;16.48;100.00;98738.72;4173548;28;20373;-74
2023/08/13 05:08:59;;;;;;;7.00;4.30;;;;;;;16.54;100.00;98744.63;4174675;28;20481;-73
2023/08/13 05:10:59;;;;;;;4.30;3.90;;;;;;;16.60;100.00;98739.41;4174045;28;20538;-73
2023/08/13 05:13:01;;;;;;;5.70;4.25;;;;;;;16.64;100.00;98745.78;4173096;28;20049;-73
2023/08/13 05:15:02;;;;;;;5.22;4.63;;;;;;;16.70;100.00;98744.13;4173214;28;20092;-73
2023/08/13 05:17:16;;;;;;;5.13;4.15;;;;;;;16.76;100.00;98742.50;4173487;28;20056;-73
2023/08/13 05:19:16;;;;;;;6.05;4.38;;;;;;;16.84;100.00;98746.81;4172974;28;20156;-73
2023/08/13 05:21:17;;;;;;;6.22;4.18;;;;;;;16.90;100.00;98744.38;4173970;28;20118;-73
2023/08/13 05:23:17;;;;;;;6.03;4.22;;;;;;;16.92;100.00;98745.53;4172525;28;20467;-73
2023/08/13 05:25:17;;;;;;;5.47;4.50;;;;;;;16.93;100.00;98749.91;4172561;28;20450;-73
2023/08/13 05:27:18;;;;;;;6.20;4.50;;;;;;;16.97;100.00;98747.09;4172731;28;20037;-74
2023/08/13 05:29:18;;;;;;;6.40;4.35;;;;;;;17.01;100.00;98753.44;4173745;28;20064;-74
2023/08/13 05:31:18;;;;;;;7.90;4.60;;;;;;;17.05;100.00;98751.41;4172241;28;20049;-74
2023/08/13 05:33:19;;;;;;;5.30;4.47;;;;;;;17.08;100.00;98751.38;4173826;28;20416;-74
2023/08/13 05:35:19;;;;;;;5.80;4.68;;;;;;;17.10;100.00;98750.94;4173961;28;20235;-74
2023/08/13 05:37:20;;;;;;;6.25;4.85;;;;;;;17.12;100.00;98749.31;4172994;28;20040;-73
2023/08/13 05:39:22;;;;;;;6.00;4.63;;;;;;;17.13;100.00;98753.72;4172908;28;20045;-73
2023/08/13 05:41:22;;;;;;;7.32;4.55;;;;;;;17.17;100.00;98744.50;4173236;28;20045;-73
2023/08/13 05:43:22;;;;;;;7.80;5.38;;;;;;;17.22;100.00;98749.63;4172278;28;20620;-73
2023/08/13 05:45:23;;;;;;;5.97;4.63;;;;;;;17.26;100.00;98755.97;4172102;28;20068;-73
2023/08/13 05:47:23;;;;;;;6.90;6.03;;;;;;;17.30;100.00;98751.16;4173136;28;20099;-73
2023/08/13 05:49:23;;;;;;;5.47;4.82;;;;;;;17.31;100.00;98747.13;4174021;28;20053;-73
2023/08/13 05:51:24;;;;;;;5.72;4.80;;;;;;;17.34;100.00;98744.28;4172827;28;20099;-73
2023/08/13 05:53:24;;;;;;;5.38;4.82;;;;;;;17.44;100.00;98752.97;4171815;28;20123;-73
2023/08/13 05:55:24;;;;;;;8.95;5.13;;;;;;;17.49;100.00;98756.09;4171912;28;20555;-73
2023/08/13 05:57:25;;;;;;;11.48;5.25;;;;;;;17.54;100.00;98749.25;4172778;28;20084;-73
2023/08/13 05:59:25;;;;;;;6.47;5.30;;;;;;;17.60;100.00;98750.38;4172454;28;20030;-73
2023/08/13 06:01:26;;;;;;;6.60;5.35;;;;;;;17.68;100.00;98758.25;4171884;28;20451;-73
2023/08/13 06:03:27;;;;;;;6.43;5.50;;;;;;;17.71;100.00;98753.88;4172182;28;20083;-73
2023/08/13 06:05:28;;;;;;;8.27;4.95;;;;;;;17.75;100.00;98748.22;4173254;28;20498;-73
2023/08/13 06:07:28;;;;;;;5.88;5.22;;;;;;;17.80;100.00;98756.16;4174788;28;20171;-73
2023/08/13 06:09:28;;;;;;;8.40;5.85;;;;;;;17.84;100.00;98756.91;4173173;28;20071;-73
2023/08/13 06:11:29;;;;;;;5.78;5.18;;;;;;;17.90;100.00;98755.22;4171680;28;20052;-73
2023/08/13 06:13:29;;;;;;;8.27;5.05;;;;;;;17.97;100.00;98752.34;4171605;28;20053;-73
2023/08/13 06:15:30;;;;;;;6.53;5.68;;;;;;;18.03;100.00;98753.44;4172826;28;20461;-73
2023/08/13 06:17:30;;;;;;;7.07;5.90;;;;;;;18.11;100.00;98765.31;4171500;28;20082;-73
2023/08/13 06:19:30;;;;;;;6.43;5.45;;;;;;;18.12;100.00;98756.53;4172831;28;20308;-73
2023/08/13 06:21:31;;;;;;;10.00;6.28;;;;;;;18.16;100.00;98754.44;4172571;28;20056;-73
2023/08/13 06:23:31;;;;;;;6.15;4.88;;;;;;;18.21;100.00;98761.59;4174122;28;20044;-73
2023/08/13 06:25:31;;;;;;;7.55;5.70;;;;;;;18.25;100.00;98756.72;4172040;28;20489;-73
2023/08/13 06:27:32;;;;;;;6.45;5.50;;;;;;;18.28;100.00;98760.69;4173598;28;20167;-73
2023/08/13 06:29:32;;;;;;;7.32;5.60;;;;;;;18.30;100.00;98747.84;4173604;28;20056;-73
2023/08/13 06:31:34;;;;;;;6.80;5.13;;;;;;;18.36;100.00;98756.56;4167852;28;20052;-73
2023/08/13 06:33:35;;;;;;;6.80;5.70;;;;;;;18.39;100.00;98759.31;4169717;28;20045;-73
2023/08/13 06:35:35;;;;;;;6.70;5.85;;;;;;;18.44;100.00;98755.22;4171942;28;20144;-73
2023/08/13 06:37:35;;;;;;;7.07;5.38;;;;;;;18.51;100.00;98755.91;4170749;28;20170;-73
2023/08/13 06:39:36;;;;;;;7.18;5.40;;;;;;;18.60;100.00;98757.38;4172170;28;20408;-73
2023/08/13 06:41:36;;;;;;;5.97;5.40;;;;;;;18.66;100.00;98753.69;4173294;28;20625;-73
2023/08/13 06:43:36;;;;;;;7.00;5.43;;;;;;;18.75;100.00;98756.75;4172496;28;20068;-73
2023/08/13 06:45:37;;;;;;;7.93;5.50;;;;;;;18.81;100.00;98751.47;4173236;28;20534;-73
2023/08/13 06:47:37;;;;;;;8.40;5.40;;;;;;;18.88;100.00;98759.75;4171973;28;20041;-73
2023/08/13 06:49:37;;;;;;;5.68;5.05;;;;;;;18.95;100.00;98750.41;4172858;28;20134;-73
2023/08/13 06:51:38;;;;;;;6.18;5.53;;;;;;;19.03;100.00;98749.88;4169459;28;20326;-73
2023/08/13 06:53:38;;;;;;;5.53;4.78;;;;;;;19.11;100.00;98753.31;4171594;28;20041;-73
2023/08/13 06:55:39;;;;;;;5.95;5.35;;;;;;;19.17;100.00;98753.63;4173351;28;20041;-73
2023/08/13 06:57:39;;;;;;;5.82;5.20;;;;;;;19.26;100.00;98751.03;4172895;28;20132;-73
2023/08/13 06:59:40;;;;;;;6.80;5.15;;;;;;;19.37;100.00;98748.84;4172370;28;20091;-73
2023/08/13 07:01:41;;;;;;;7.20;6.50;;;;;;;19.46;100.00;98746.25;4171655;28;20399;-73
2023/08/13 07:03:44;;;;;;;9.80;6.05;;;;;;;19.59;100.00;98747.19;4172758;28;20037;-73
2023/08/13 07:05:45;;;;;;;6.03;5.40;;;;;;;19.69;100.00;98741.78;4171994;28;20485;-73
2023/08/13 07:07:45;;;;;;;6.50;5.03;;;;;;;19.77;100.00;98746.81;4172141;28;20554;-73
2023/08/13 07:09:46;;;;;;;5.57;5.00;;;;;;;19.89;100.00;98748.97;4172363;28;20052;-73
2023/08/13 07:11:46;;;;;;;7.18;4.90;;;;;;;19.98;100.00;98741.97;4172075;28;20049;-73
2023/08/13 07:13:50;;;;;;;5.65;4.85;;;;;;;20.09;100.00;98748.91;4170840;28;20080;-73
2023/08/13 07:15:50;;;;;;;5.15;4.57;;;;;;;20.17;100.00;98743.94;4171804;28;20104;-72
2023/08/13 07:17:51;;;;;;;7.03;4.50;;;;;;;20.31;100.00;98742.81;4172110;28;20095;-73
2023/08/13 07:19:51;;;;;;;7.55;4.60;;;;;;;20.43;100.00;98747.75;4171450;28;20057;-73
2023/08/13 07:21:52;;;;;;;4.72;4.20;;;;;;;20.50;100.00;98746.81;4171768;28;20433;-73
2023/08/13 07:23:52;;;;;;;5.50;4.70;;;;;;;20.54;100.00;98742.69;4171081;28;20427;-73
2023/08/13 07:25:52;;;;;;;5.93;4.50;;;;;;;20.61;100.00;98736.13;4173241;28;20257;-73
2023/08/13 07:27:53;;;;;;;4.80;4.30;;;;;;;20.68;100.00;98749.97;4175938;28;20561;-73
2023/08/13 07:29:54;;;;;;;4.65;4.25;;;;;;;20.74;100.00;98757.44;4175546;28;20041;-73
2023/08/13 07:31:54;;;;;;;4.97;4.47;;;;;;;20.78;100.00;98750.97;4170135;28;20049;-73
2023/08/13 07:33:55;;;;;;;6.43;4.22;;;;;;;20.82;100.00;98748.84;4111866;28;20104;-73
2023/08/13 07:35:56;;;;;;;4.80;4.30;;;;;;;20.88;100.00;98753.50;4172511;28;20120;-73
2023/08/13 07:37:57;;;;;;;5.35;4.13;;;;;;;20.89;100.00;98760.69;4168086;28;20190;-73
2023/08/13 07:39:57;;;;;;;5.07;4.57;;;;;;;20.82;100.00;98762.91;4170790;28;20048;-73
2023/08/13 07:41:58;;;;;;;4.43;4.00;;;;;;;20.78;100.00;98763.00;4174625;28;20033;-73
2023/08/13 07:43:58;;;;;;;4.35;3.95;;;;;;;20.79;100.00;98749.72;4169952;28;20132;-73
2023/08/13 07:45:59;;;;;;;4.43;4.03;;;;;;;20.80;100.00;98735.22;4168795;28;20083;-73
2023/08/13 07:47:59;;;;;;;4.72;4.28;;;;;;;20.84;100.00;98752.00;4170057;28;20198;-73
2023/08/13 07:50:00;;;;;;;4.35;3.95;;;;;;;20.90;100.00;98744.59;4175293;28;20112;-73
2023/08/13 07:52:00;;;;;;;4.50;3.60;;;;;;;20.91;100.00;98741.34;4174574;28;20064;-73
2023/08/13 07:54:02;;;;;;;6.20;3.92;;;;;;;20.97;100.00;98747.25;4173343;28;20132;-74
2023/08/13 07:56:02;;;;;;;4.68;3.80;;;;;;;20.98;100.00;98740.38;4174005;28;20112;-73
2023/08/13 07:58:03;;;;;;;4.38;3.97;;;;;;;21.07;100.00;98742.56;4176298;28;20476;-73
2023/08/13 08:00:07;;;;;;;6.30;4.60;;;;;;;21.13;100.00;98737.97;4176391;28;20036;-73
2023/08/13 08:02:08;;;;;;;4.95;3.90;;;;;;;21.24;100.00;98753.34;4172524;28;20029;-73
2023/08/13 08:04:08;;;;;;;5.13;4.40;;;;;;;21.37;100.00;98752.63;4173967;28;20661;-73
2023/08/13 08:06:09;;;;;;;4.50;4.10;;;;;;;21.43;100.00;98753.66;4175634;28;20064;-73
2023/08/13 08:08:09;;;;;;;7.43;4.32;;;;;;;21.50;100.00;98747.81;4172599;28;20029;-74
2023/08/13 08:10:09;;;;;;;4.10;3.50;;;;;;;21.53;100.00;98744.94;4175104;28;20037;-73
2023/08/13 08:12:10;;;;;;;6.63;3.88;;;;;;;21.58;100.00;98752.81;4174588;28;20112;-74
2023/08/13 08:14:10;;;;;;;4.00;3.67;;;;;;;21.62;100.00;98735.03;4174438;28;20055;-73
2023/08/13 08:16:10;;;;;;;3.92;3.05;;;;;;;21.62;100.00;98738.66;4174306;28;20041;-74
2023/08/13 08:18:11;;;;;;;5.75;4.00;;;;;;;21.61;100.00;98744.72;4172911;28;20059;-73
2023/08/13 08:20:11;;;;;;;4.07;3.78;;;;;;;21.62;100.00;98740.69;4174789;28;20283;-73
2023/08/13 08:22:11;;;;;;;4.63;4.00;;;;;;;21.54;100.00;98728.81;4173500;28;20036;-74
2023/08/13 08:24:12;;;;;;;3.60;3.13;;;;;;;21.58;100.00;98735.91;4173680;28;20025;-74
2023/08/13 08:26:12;;;;;;;3.92;2.90;;;;;;;21.64;100.00;98736.16;4174198;28;20406;-74
2023/08/13 08:28:12;;;;;;;3.45;3.15;;;;;;;21.69;100.00;98732.81;4174598;28;20032;-74
2023/08/13 08:30:13;;;;;;;3.90;2.90;;;;;;;21.71;100.00;98723.91;4174326;28;20060;-74
2023/08/13 08:32:13;;;;;;;4.03;3.13;;;;;;;21.77;100.00;98734.19;4174050;28;20029;-74
2023/08/13 08:34:13;;;;;;;4.05;2.58;;;;;;;21.84;100.00;98730.34;4174296;28;20510;-74
2023/08/13 08:36:14;;;;;;;3.20;2.90;;;;;;;21.88;100.00;98723.38;4175035;28;20435;-73
2023/08/13 08:38:14;;;;;;;3.20;2.90;;;;;;;22.00;100.00;98730.25;4172622;28;20546;-74
2023/08/13 08:40:14;;;;;;;4.70;2.78;;;;;;;22.08;100.00;98731.63;4175548;28;20029;-74
2023/08/13 08:42:15;;;;;;;3.47;2.55;;;;;;;22.13;100.00;98728.28;4174582;28;20036;-74
2023/08/13 08:44:20;;;;;;;3.80;2.50;;;;;;;22.22;100.00;98727.59;4172224;28;20044;-74
2023/08/13 08:46:22;;;;;;;3.33;2.50;;;;;;;22.34;100.00;98721.19;4172709;28;20124;-74
2023/08/13 08:48:28;;;;;;;5.68;2.85;;;;;;;22.43;100.00;98724.09;4174649;28;20378;-74
2023/08/13 08:50:29;;;;;;;4.45;2.70;;;;;;;22.61;100.00;98725.56;4173905;28;20118;-73
2023/08/13 08:52:31;;;;;;;3.92;2.70;;;;;;;22.69;100.00;98719.22;4174393;28;20512;-73
2023/08/13 08:54:37;;;;;;;3.67;2.70;;;;;;;22.73;100.00;98727.56;4172719;28;20045;-73
2023/08/13 08:56:37;;;;;;;4.50;2.65;;;;;;;22.70;100.00;98720.78;4174188;28;20140;-73
2023/08/13 08:58:38;;;;;;;2.50;2.22;;;;;;;22.68;100.00;98728.94;4174349;28;20080;-73
2023/08/13 09:00:38;;;;;;;3.42;2.28;;;;;;;22.64;100.00;98710.53;4172562;28;20068;-73
2023/08/13 09:02:41;;;;;;;2.67;2.00;;;;;;;22.72;100.00;98723.16;4172483;28;20501;-73
2023/08/13 09:04:41;;;;;;;3.70;2.00;;;;;;;22.76;100.00;98723.06;4174561;28;20060;-74
2023/08/13 09:07:03;;;;;;;3.00;1.67;;;;;;;22.76;100.00;98720.22;4174112;28;20419;-74
2023/08/13 09:09:03;;;;;;;2.00;1.80;;;;;;;22.74;99.86;98725.50;4173476;28;20481;-73
2023/08/13 09:11:04;;;;;;;2.10;1.70;;;;;;;22.77;100.00;98719.78;4173589;28;20128;-73
2023/08/13 09:13:06;;;;;;;2.53;1.88;;;;;;;22.77;100.00;98718.97;4172491;28;20056;-73
2023/08/13 09:15:11;;;;;;;2.55;1.60;;;;;;;22.80;100.00;98716.03;4173695;28;20052;-73
2023/08/13 09:17:12;;;;;;;2.47;2.03;;;;;;;22.92;100.00;98715.25;4173293;28;20040;-73
2023/08/13 09:19:13;;;;;;;2.67;1.52;;;;;;;22.99;100.00;98717.81;4172775;28;20060;-73
2023/08/13 09:21:13;;;;;;;2.35;1.83;;;;;;;22.99;100.00;98709.34;4173087;28;20064;-73
2023/08/13 09:23:23;;;;;;;3.03;1.95;;;;;;;23.02;100.00;98704.03;4172658;28;20053;-74